createdAt,value
2022-12-20T00:00:32.706Z,740
2022-12-20T00:01:32.613Z,778
2022-12-20T00:02:32.666Z,778
2022-12-20T00:03:32.518Z,778
2022-12-20T00:05:32.681Z,778
2022-12-20T00:06:32.490Z,793
2022-12-20T00:07:32.512Z,793
2022-12-20T00:08:32.511Z,793
2022-12-20T00:10:32.696Z,793
2022-12-20T00:11:32.527Z,793
2022-12-20T00:12:32.519Z,793
2022-12-20T00:13:32.520Z,793
2022-12-20T00:15:32.723Z,793
2022-12-20T00:16:32.553Z,877
2022-12-20T00:17:32.519Z,877
2022-12-20T00:18:32.514Z,877
2022-12-20T00:20:32.707Z,877
2022-12-20T00:21:32.489Z,765
2022-12-20T00:22:32.527Z,765
2022-12-20T00:23:32.531Z,765
2022-12-20T00:25:32.716Z,765
2022-12-20T00:26:32.551Z,697
2022-12-20T00:27:32.522Z,697
2022-12-20T00:28:32.515Z,697
2022-12-20T00:30:32.713Z,697
2022-12-20T00:31:32.642Z,778
2022-12-20T00:32:32.498Z,778
2022-12-20T00:33:32.510Z,778
2022-12-20T00:35:32.693Z,778
2022-12-20T00:36:32.540Z,863
2022-12-20T00:37:32.492Z,863
2022-12-20T00:38:32.511Z,863
2022-12-20T00:40:32.698Z,863
2022-12-20T00:41:32.530Z,765
2022-12-20T00:42:32.536Z,765
2022-12-20T00:43:32.529Z,765
2022-12-20T00:45:32.721Z,765
2022-12-20T00:46:32.542Z,778
2022-12-20T00:47:32.539Z,778
2022-12-20T00:48:32.528Z,778
2022-12-20T00:50:32.726Z,778
2022-12-20T00:51:32.539Z,846
2022-12-20T00:52:32.546Z,846
2022-12-20T00:53:32.545Z,846
2022-12-20T00:55:32.700Z,846
2022-12-20T00:56:32.544Z,740
2022-12-20T00:57:32.507Z,740
2022-12-20T00:58:32.534Z,740
2022-12-20T01:00:32.706Z,740
2022-12-20T01:01:32.667Z,752
2022-12-20T01:02:32.703Z,752
2022-12-20T01:03:32.577Z,752
2022-12-20T01:05:32.791Z,752
2022-12-20T01:06:32.520Z,832
2022-12-20T01:07:32.540Z,832
2022-12-20T01:08:32.535Z,832
2022-12-20T01:10:32.734Z,832
2022-12-20T01:11:32.524Z,846
2022-12-20T01:12:32.517Z,846
2022-12-20T01:13:32.558Z,846
2022-12-20T01:15:32.710Z,846
2022-12-20T01:16:32.558Z,832
2022-12-20T01:17:32.533Z,832
2022-12-20T01:18:32.508Z,832
2022-12-20T01:20:32.732Z,832
2022-12-20T01:21:32.516Z,765
2022-12-20T01:22:32.525Z,765
2022-12-20T01:23:32.545Z,765
2022-12-20T01:25:32.741Z,765
2022-12-20T01:26:32.544Z,740
2022-12-20T01:27:32.520Z,740
2022-12-20T01:28:32.515Z,740
2022-12-20T01:30:32.782Z,740
2022-12-20T01:31:32.590Z,817
2022-12-20T01:32:32.571Z,817
2022-12-20T01:33:32.538Z,817
2022-12-20T01:35:32.763Z,817
2022-12-20T01:36:32.552Z,817
2022-12-20T01:37:32.547Z,817
2022-12-20T01:38:32.532Z,817
2022-12-20T01:40:32.715Z,817
2022-12-20T01:41:32.546Z,752
2022-12-20T01:42:32.560Z,752
2022-12-20T01:43:32.524Z,752
2022-12-20T01:45:32.766Z,752
2022-12-20T01:46:32.626Z,778
2022-12-20T01:47:32.550Z,778
2022-12-20T01:48:32.543Z,778
2022-12-20T01:50:32.744Z,778
2022-12-20T01:51:32.608Z,791
2022-12-20T01:52:32.544Z,791
2022-12-20T01:53:32.570Z,791
2022-12-20T01:55:32.754Z,791
2022-12-20T01:56:32.553Z,791
2022-12-20T01:57:32.530Z,791
2022-12-20T01:58:32.605Z,791
2022-12-20T02:00:32.756Z,791
2022-12-20T02:01:32.698Z,765
2022-12-20T02:02:32.694Z,765
2022-12-20T02:03:32.680Z,765
2022-12-20T02:05:32.777Z,765
2022-12-20T02:06:32.526Z,804
2022-12-20T02:07:32.548Z,804
2022-12-20T02:08:32.536Z,804
2022-12-20T02:10:32.752Z,804
2022-12-20T02:11:32.554Z,804
2022-12-20T02:12:32.559Z,804
2022-12-20T02:13:32.556Z,804
2022-12-20T02:15:32.754Z,804
2022-12-20T02:16:32.625Z,752
2022-12-20T02:17:32.554Z,752
2022-12-20T02:18:32.552Z,752
2022-12-20T02:20:32.746Z,752
2022-12-20T02:21:32.583Z,740
2022-12-20T02:22:32.561Z,740
2022-12-20T02:23:32.561Z,740
2022-12-20T02:25:32.740Z,740
2022-12-20T02:26:32.559Z,728
2022-12-20T02:27:32.558Z,728
2022-12-20T02:28:32.575Z,728
2022-12-20T02:30:32.776Z,728
2022-12-20T02:31:32.623Z,649
2022-12-20T02:32:32.586Z,649
2022-12-20T02:33:32.565Z,649
2022-12-20T02:35:32.761Z,649
2022-12-20T02:36:32.563Z,765
2022-12-20T02:37:32.563Z,765
2022-12-20T02:38:32.555Z,765
2022-12-20T02:40:32.755Z,765
2022-12-20T02:41:32.537Z,740
2022-12-20T02:42:32.577Z,740
2022-12-20T02:43:32.586Z,740
2022-12-20T02:45:32.751Z,740
2022-12-20T02:46:32.610Z,712
2022-12-20T02:47:32.538Z,712
2022-12-20T02:48:32.536Z,712
2022-12-20T02:50:32.751Z,712
2022-12-20T02:51:32.540Z,672
2022-12-20T02:52:32.582Z,672
2022-12-20T02:53:32.581Z,672
2022-12-20T02:55:32.736Z,672
2022-12-20T02:56:32.566Z,672
2022-12-20T02:57:32.568Z,672
2022-12-20T02:58:32.591Z,672
2022-12-20T03:00:32.767Z,672
2022-12-20T03:01:32.647Z,697
2022-12-20T03:02:32.692Z,697
2022-12-20T03:03:32.645Z,697
2022-12-20T03:05:32.755Z,697
2022-12-20T03:06:32.545Z,659
2022-12-20T03:07:32.572Z,659
2022-12-20T03:08:32.581Z,659
2022-12-20T03:10:32.776Z,659
2022-12-20T03:11:32.582Z,659
2022-12-20T03:12:32.579Z,659
2022-12-20T03:13:32.580Z,659
2022-12-20T03:15:32.749Z,659
2022-12-20T03:16:32.806Z,659
2022-12-20T03:17:32.575Z,659
2022-12-20T03:18:32.554Z,659
2022-12-20T03:20:32.769Z,659
2022-12-20T03:21:32.554Z,712
2022-12-20T03:22:32.584Z,712
2022-12-20T03:23:32.573Z,712
2022-12-20T03:25:32.776Z,712
2022-12-20T03:26:32.545Z,592
2022-12-20T03:27:32.558Z,592
2022-12-20T03:28:32.589Z,592
2022-12-20T03:30:32.825Z,592
2022-12-20T03:31:32.621Z,649
2022-12-20T03:32:32.572Z,649
2022-12-20T03:33:32.600Z,649
2022-12-20T03:35:32.764Z,649
2022-12-20T03:36:32.570Z,712
2022-12-20T03:37:32.583Z,712
2022-12-20T03:38:32.578Z,712
2022-12-20T03:40:32.785Z,712
2022-12-20T03:41:32.583Z,572
2022-12-20T03:42:32.585Z,572
2022-12-20T03:43:32.581Z,572
2022-12-20T03:45:32.752Z,572
2022-12-20T03:46:32.606Z,627
2022-12-20T03:47:32.579Z,627
2022-12-20T03:48:32.617Z,627
2022-12-20T03:50:32.781Z,627
2022-12-20T03:51:32.593Z,690
2022-12-20T03:52:32.569Z,690
2022-12-20T03:53:32.587Z,690
2022-12-20T03:55:32.772Z,690
2022-12-20T03:56:32.583Z,656
2022-12-20T03:57:32.590Z,656
2022-12-20T03:58:32.602Z,656
2022-12-20T04:00:32.763Z,656
2022-12-20T04:01:32.626Z,656
2022-12-20T04:02:32.755Z,656
2022-12-20T04:03:32.657Z,656
2022-12-20T04:05:32.771Z,656
2022-12-20T04:06:32.599Z,589
2022-12-20T04:07:32.589Z,589
2022-12-20T04:08:32.593Z,589
2022-12-20T04:10:32.800Z,589
2022-12-20T04:11:32.590Z,656
2022-12-20T04:12:32.603Z,656
2022-12-20T04:13:32.567Z,656
2022-12-20T04:15:32.792Z,656
2022-12-20T04:16:32.663Z,627
2022-12-20T04:17:32.606Z,627
2022-12-20T04:18:32.577Z,627
2022-12-20T04:20:32.774Z,627
2022-12-20T04:21:32.598Z,637
2022-12-20T04:22:32.604Z,637
2022-12-20T04:23:32.576Z,637
2022-12-20T04:25:32.784Z,637
2022-12-20T04:26:32.593Z,627
2022-12-20T04:27:32.603Z,627
2022-12-20T04:28:32.580Z,627
2022-12-20T04:30:32.772Z,627
2022-12-20T04:31:32.666Z,618
2022-12-20T04:32:32.610Z,618
2022-12-20T04:33:32.626Z,618
2022-12-20T04:35:32.831Z,618
2022-12-20T04:36:32.599Z,618
2022-12-20T04:37:32.581Z,618
2022-12-20T04:38:32.593Z,618
2022-12-20T04:40:32.807Z,618
2022-12-20T04:41:32.632Z,637
2022-12-20T04:42:32.577Z,637
2022-12-20T04:43:32.615Z,637
2022-12-20T04:45:32.802Z,637
2022-12-20T04:46:32.647Z,627
2022-12-20T04:47:32.601Z,627
2022-12-20T04:48:56.879Z,627
2022-12-20T04:50:32.789Z,627
2022-12-20T04:51:32.613Z,637
2022-12-20T04:52:32.605Z,637
2022-12-20T04:53:32.591Z,637
2022-12-20T04:55:32.805Z,637
2022-12-20T04:56:32.617Z,599
2022-12-20T04:57:32.620Z,599
2022-12-20T04:58:32.572Z,599
2022-12-20T05:00:32.801Z,599
2022-12-20T05:01:32.635Z,683
2022-12-20T05:02:32.725Z,683
2022-12-20T05:03:32.649Z,683
2022-12-20T05:05:32.799Z,683
2022-12-20T05:06:32.626Z,607
2022-12-20T05:07:32.617Z,607
2022-12-20T05:08:32.587Z,607
2022-12-20T05:10:32.803Z,607
2022-12-20T05:11:32.625Z,627
2022-12-20T05:12:32.605Z,627
2022-12-20T05:13:32.586Z,627
2022-12-20T05:15:32.830Z,627
2022-12-20T05:16:32.641Z,570
2022-12-20T05:17:32.606Z,570
2022-12-20T05:18:32.606Z,570
2022-12-20T05:20:32.801Z,570
2022-12-20T05:21:32.616Z,580
2022-12-20T05:22:32.615Z,580
2022-12-20T05:23:32.590Z,580
2022-12-20T05:25:32.792Z,580
2022-12-20T05:26:32.599Z,637
2022-12-20T05:27:32.590Z,637
2022-12-20T05:28:32.615Z,637
2022-12-20T05:30:32.796Z,637
2022-12-20T05:31:32.653Z,580
2022-12-20T05:32:32.627Z,580
2022-12-20T05:33:34.303Z,580
2022-12-20T05:35:32.843Z,580
2022-12-20T05:36:32.623Z,589
2022-12-20T05:37:32.632Z,589
2022-12-20T05:38:32.594Z,589
2022-12-20T05:40:32.830Z,589
2022-12-20T05:41:32.624Z,597
2022-12-20T05:42:32.629Z,597
2022-12-20T05:43:32.612Z,597
2022-12-20T05:45:32.821Z,597
2022-12-20T05:46:32.703Z,742
2022-12-20T05:47:32.631Z,742
2022-12-20T05:48:32.634Z,742
2022-12-20T05:50:32.823Z,742
2022-12-20T05:51:32.627Z,646
2022-12-20T05:52:32.651Z,646
2022-12-20T05:53:32.632Z,646
2022-12-20T05:55:32.812Z,646
2022-12-20T05:56:32.863Z,656
2022-12-20T05:57:32.633Z,656
2022-12-20T05:58:32.618Z,656
2022-12-20T06:00:32.813Z,656
2022-12-20T06:01:32.931Z,524
2022-12-20T06:02:32.832Z,524
2022-12-20T06:03:32.768Z,524
2022-12-20T06:05:32.833Z,524
2022-12-20T06:06:32.765Z,607
2022-12-20T06:07:32.640Z,607
2022-12-20T06:08:32.606Z,607
2022-12-20T06:10:32.820Z,607
2022-12-20T06:11:32.843Z,607
2022-12-20T06:12:32.625Z,607
2022-12-20T06:13:32.659Z,607
2022-12-20T06:15:32.837Z,607
2022-12-20T06:16:32.691Z,564
2022-12-20T06:17:32.611Z,564
2022-12-20T06:18:32.633Z,564
2022-12-20T06:20:32.807Z,564
2022-12-20T06:21:32.637Z,581
2022-12-20T06:22:32.638Z,581
2022-12-20T06:23:32.637Z,581
2022-12-20T06:25:32.829Z,581
2022-12-20T06:26:32.668Z,678
2022-12-20T06:27:32.645Z,678
2022-12-20T06:28:32.644Z,678
2022-12-20T06:30:34.157Z,678
2022-12-20T06:31:32.692Z,638
2022-12-20T06:32:32.613Z,638
2022-12-20T06:33:32.644Z,638
2022-12-20T06:35:32.833Z,638
2022-12-20T06:36:32.642Z,640
2022-12-20T06:37:32.676Z,640
2022-12-20T06:38:32.639Z,640
2022-12-20T06:40:32.811Z,640
2022-12-20T06:41:32.678Z,614
2022-12-20T06:42:32.646Z,614
2022-12-20T06:43:32.643Z,614
2022-12-20T06:45:36.118Z,614
2022-12-20T06:46:32.721Z,665
2022-12-20T06:47:32.607Z,665
2022-12-20T06:48:32.646Z,665
2022-12-20T06:50:32.836Z,665
2022-12-20T06:51:32.650Z,747
2022-12-20T06:52:32.650Z,747
2022-12-20T06:53:32.653Z,747
2022-12-20T06:55:32.836Z,747
2022-12-20T06:56:36.164Z,747
2022-12-20T06:57:32.662Z,747
2022-12-20T06:58:32.645Z,747
2022-12-20T07:00:32.836Z,747
2022-12-20T07:01:32.741Z,675
2022-12-20T07:02:32.783Z,675
2022-12-20T07:03:32.753Z,675
2022-12-20T07:05:32.839Z,675
2022-12-20T07:06:32.710Z,665
2022-12-20T07:07:33.749Z,665
2022-12-20T07:08:32.629Z,665
2022-12-20T07:10:32.844Z,665
2022-12-20T07:11:32.625Z,626
2022-12-20T07:12:32.648Z,626
2022-12-20T07:13:32.655Z,626
2022-12-20T07:15:32.846Z,626
2022-12-20T07:16:32.659Z,614
2022-12-20T07:17:32.684Z,614
2022-12-20T07:18:32.684Z,614
2022-12-20T07:20:32.885Z,614
2022-12-20T07:21:32.664Z,569
2022-12-20T07:22:32.651Z,569
2022-12-20T07:23:32.620Z,569
2022-12-20T07:25:32.835Z,569
2022-12-20T07:26:32.638Z,519
2022-12-20T07:27:32.671Z,519
2022-12-20T07:28:32.659Z,519
2022-12-20T07:30:32.853Z,519
2022-12-20T07:31:32.693Z,714
2022-12-20T07:32:32.661Z,714
2022-12-20T07:33:32.649Z,714
2022-12-20T07:35:32.855Z,714
2022-12-20T07:36:32.668Z,580
2022-12-20T07:37:32.675Z,580
2022-12-20T07:38:32.625Z,580
2022-12-20T07:40:32.873Z,580
2022-12-20T07:41:32.663Z,647
2022-12-20T07:42:36.324Z,647
2022-12-20T07:43:32.660Z,647
2022-12-20T07:45:32.871Z,647
2022-12-20T07:46:32.709Z,551
2022-12-20T07:47:32.677Z,551
2022-12-20T07:48:32.699Z,551
2022-12-20T07:50:32.875Z,551
2022-12-20T07:51:32.699Z,730
2022-12-20T07:52:32.633Z,730
2022-12-20T07:53:32.638Z,730
2022-12-20T07:55:32.903Z,730
2022-12-20T07:56:36.001Z,603
2022-12-20T07:57:32.672Z,603
2022-12-20T07:58:32.679Z,603
2022-12-20T08:00:32.867Z,603
2022-12-20T08:01:32.728Z,591
2022-12-20T08:02:32.855Z,591
2022-12-20T08:03:32.843Z,591
2022-12-20T08:05:32.868Z,591
2022-12-20T08:06:32.651Z,627
2022-12-20T08:07:32.690Z,627
2022-12-20T08:08:32.704Z,627
2022-12-20T08:10:32.868Z,627
2022-12-20T08:11:32.674Z,562
2022-12-20T08:12:32.665Z,562
2022-12-20T08:13:32.692Z,562
2022-12-20T08:15:32.880Z,562
2022-12-20T08:16:32.722Z,500
2022-12-20T08:17:32.688Z,500
2022-12-20T08:18:32.670Z,500
2022-12-20T08:20:32.843Z,500
2022-12-20T08:21:32.677Z,617
2022-12-20T08:22:32.683Z,617
2022-12-20T08:23:32.677Z,617
2022-12-20T08:25:37.397Z,617
2022-12-20T08:26:32.680Z,674
2022-12-20T08:27:32.686Z,674
2022-12-20T08:28:32.651Z,674
2022-12-20T08:30:32.921Z,674
2022-12-20T08:31:32.762Z,571
2022-12-20T08:32:32.687Z,571
2022-12-20T08:33:32.690Z,571
2022-12-20T08:35:32.855Z,571
2022-12-20T08:36:32.661Z,562
2022-12-20T08:37:32.686Z,562
2022-12-20T08:38:32.677Z,562
2022-12-20T08:40:32.880Z,562
2022-12-20T08:41:32.696Z,674
2022-12-20T08:42:32.709Z,674
2022-12-20T08:43:32.678Z,674
2022-12-20T08:45:32.851Z,674
2022-12-20T08:46:32.763Z,689
2022-12-20T08:47:32.693Z,689
2022-12-20T08:48:32.657Z,689
2022-12-20T08:50:32.883Z,689
2022-12-20T08:51:32.748Z,603
2022-12-20T08:52:32.667Z,603
2022-12-20T08:53:32.699Z,603
2022-12-20T08:55:32.900Z,603
2022-12-20T08:56:32.654Z,617
2022-12-20T08:57:32.699Z,617
2022-12-20T08:58:32.657Z,617
2022-12-20T09:00:32.876Z,617
2022-12-20T09:01:32.724Z,571
2022-12-20T09:02:32.854Z,571
2022-12-20T09:03:32.734Z,571
2022-12-20T09:05:32.872Z,571
2022-12-20T09:06:32.692Z,571
2022-12-20T09:07:32.669Z,571
2022-12-20T09:08:32.670Z,571
2022-12-20T09:10:32.895Z,571
2022-12-20T09:11:32.698Z,540
2022-12-20T09:12:32.692Z,540
2022-12-20T09:13:35.364Z,540
2022-12-20T09:15:32.942Z,540
2022-12-20T09:16:32.706Z,571
2022-12-20T09:17:32.712Z,571
2022-12-20T09:18:32.697Z,571
2022-12-20T09:20:32.876Z,571
2022-12-20T09:21:32.718Z,571
2022-12-20T09:22:32.691Z,571
2022-12-20T09:23:32.710Z,571
2022-12-20T09:25:32.922Z,571
2022-12-20T09:26:32.671Z,562
2022-12-20T09:27:32.699Z,562
2022-12-20T09:28:32.756Z,562
2022-12-20T09:30:32.901Z,562
2022-12-20T09:31:32.756Z,500
2022-12-20T09:32:32.704Z,500
2022-12-20T09:33:32.713Z,500
2022-12-20T09:35:32.903Z,500
2022-12-20T09:36:32.709Z,507
2022-12-20T09:37:32.696Z,507
2022-12-20T09:38:32.706Z,507
2022-12-20T09:40:32.887Z,507
2022-12-20T09:41:32.729Z,551
2022-12-20T09:42:32.711Z,551
2022-12-20T09:43:32.708Z,551
2022-12-20T09:45:32.904Z,551
2022-12-20T09:46:32.733Z,534
2022-12-20T09:47:32.765Z,534
2022-12-20T09:48:32.716Z,534
2022-12-20T09:50:32.885Z,534
2022-12-20T09:51:32.720Z,481
2022-12-20T09:52:32.735Z,481
2022-12-20T09:53:32.730Z,481
2022-12-20T09:55:32.915Z,481
2022-12-20T09:56:32.704Z,481
2022-12-20T09:57:32.694Z,481
2022-12-20T09:58:32.678Z,481
2022-12-20T10:00:32.884Z,481
2022-12-20T10:01:36.441Z,471
2022-12-20T10:02:56.937Z,471
2022-12-20T10:03:32.838Z,471
2022-12-20T10:05:37.099Z,471
2022-12-20T10:06:32.740Z,460
2022-12-20T10:07:32.727Z,460
2022-12-20T10:08:32.694Z,460
2022-12-20T10:10:32.912Z,460
2022-12-20T10:11:38.735Z,460
2022-12-20T10:12:32.720Z,460
2022-12-20T10:13:32.714Z,460
2022-12-20T10:15:32.916Z,460
2022-12-20T10:16:32.726Z,501
2022-12-20T10:17:32.960Z,501
2022-12-20T10:18:32.700Z,501
2022-12-20T10:20:32.883Z,501
2022-12-20T10:21:32.702Z,415
2022-12-20T10:22:32.720Z,415
2022-12-20T10:23:33.496Z,415
2022-12-20T10:25:32.926Z,415
2022-12-20T10:26:32.729Z,415
2022-12-20T10:27:32.731Z,415
2022-12-20T10:28:32.688Z,415
2022-12-20T10:30:32.918Z,415
2022-12-20T10:31:32.795Z,415
2022-12-20T10:32:32.713Z,415
2022-12-20T10:33:32.724Z,415
2022-12-20T10:35:32.903Z,415
2022-12-20T10:36:32.739Z,450
2022-12-20T10:37:32.725Z,450
2022-12-20T10:38:32.726Z,450
2022-12-20T10:40:53.708Z,450
2022-12-20T10:41:32.723Z,501
2022-12-20T10:42:32.731Z,501
2022-12-20T10:43:32.739Z,501
2022-12-20T10:45:36.156Z,501
2022-12-20T10:46:32.744Z,471
2022-12-20T10:47:32.750Z,471
2022-12-20T10:48:32.704Z,471
2022-12-20T10:50:32.934Z,471
2022-12-20T10:51:32.715Z,441
2022-12-20T10:52:32.708Z,441
2022-12-20T10:53:32.711Z,441
2022-12-20T10:55:32.925Z,441
2022-12-20T10:56:32.732Z,491
2022-12-20T10:57:32.701Z,491
2022-12-20T10:58:32.709Z,491
2022-12-20T11:00:32.905Z,491
2022-12-20T11:01:32.798Z,491
2022-12-20T11:02:39.892Z,491
2022-12-20T11:03:32.961Z,491
2022-12-20T11:05:32.913Z,491
2022-12-20T11:06:32.723Z,481
2022-12-20T11:07:32.731Z,481
2022-12-20T11:08:38.045Z,481
2022-12-20T11:10:32.915Z,481
2022-12-20T11:11:32.712Z,523
2022-12-20T11:12:32.777Z,523
2022-12-20T11:13:32.749Z,523
2022-12-20T11:15:34.626Z,523
2022-12-20T11:16:32.784Z,491
2022-12-20T11:17:32.748Z,491
2022-12-20T11:18:32.710Z,491
2022-12-20T11:20:32.918Z,491
2022-12-20T11:21:32.743Z,471
2022-12-20T11:22:32.739Z,471
2022-12-20T11:23:32.745Z,471
2022-12-20T11:25:32.911Z,471
2022-12-20T11:26:32.725Z,491
2022-12-20T11:27:32.754Z,491
2022-12-20T11:28:32.762Z,491
2022-12-20T11:30:32.923Z,491
2022-12-20T11:31:32.804Z,471
2022-12-20T11:32:32.715Z,471
2022-12-20T11:33:32.731Z,471
2022-12-20T11:35:32.942Z,471
2022-12-20T11:36:32.748Z,450
2022-12-20T11:37:32.718Z,450
2022-12-20T11:38:32.729Z,450
2022-12-20T11:40:32.920Z,450
2022-12-20T11:41:32.753Z,501
2022-12-20T11:42:32.766Z,501
2022-12-20T11:43:36.457Z,501
2022-12-20T11:45:32.944Z,501
2022-12-20T11:46:32.819Z,584
2022-12-20T11:47:32.784Z,584
2022-12-20T11:48:32.741Z,584
2022-12-20T11:50:32.941Z,584
2022-12-20T11:51:32.746Z,571
2022-12-20T11:52:32.746Z,571
2022-12-20T11:53:32.789Z,571
2022-12-20T11:55:32.924Z,571
2022-12-20T11:56:32.740Z,450
2022-12-20T11:57:42.467Z,450
2022-12-20T11:58:32.726Z,450
2022-12-20T12:00:32.931Z,450
2022-12-20T12:01:32.763Z,491
2022-12-20T12:02:32.835Z,491
2022-12-20T12:03:32.751Z,491
2022-12-20T12:05:33.045Z,491
2022-12-20T12:06:32.768Z,432
2022-12-20T12:07:32.827Z,432
2022-12-20T12:08:32.724Z,432
2022-12-20T12:10:32.949Z,432
2022-12-20T12:12:04.942Z,405
2022-12-20T12:12:32.772Z,405
2022-12-20T12:13:32.752Z,405
2022-12-20T12:15:32.935Z,405
2022-12-20T12:16:32.830Z,460
2022-12-20T12:17:32.737Z,460
2022-12-20T12:18:32.766Z,460
2022-12-20T12:20:33.002Z,460
2022-12-20T12:21:32.750Z,450
2022-12-20T12:22:32.787Z,450
2022-12-20T12:23:32.765Z,450
2022-12-20T12:25:32.935Z,450
2022-12-20T12:26:32.775Z,471
2022-12-20T12:27:32.768Z,471
2022-12-20T12:28:32.770Z,471
2022-12-20T12:30:32.957Z,471
2022-12-20T12:31:32.782Z,507
2022-12-20T12:32:32.744Z,507
2022-12-20T12:33:38.368Z,507
2022-12-20T12:35:32.926Z,507
2022-12-20T12:36:32.742Z,523
2022-12-20T12:37:32.753Z,523
2022-12-20T12:38:32.781Z,523
2022-12-20T12:40:32.963Z,523
2022-12-20T12:41:32.786Z,523
2022-12-20T12:42:32.774Z,523
2022-12-20T12:43:32.773Z,523
2022-12-20T12:45:33.004Z,523
2022-12-20T12:46:32.818Z,544
2022-12-20T12:47:32.777Z,544
2022-12-20T12:48:32.744Z,544
2022-12-20T12:50:32.949Z,544
2022-12-20T12:51:32.784Z,584
2022-12-20T12:52:35.833Z,584
2022-12-20T12:53:32.735Z,584
2022-12-20T12:55:32.997Z,584
2022-12-20T12:56:43.027Z,523
2022-12-20T12:57:32.776Z,523
2022-12-20T12:58:32.750Z,523
2022-12-20T13:00:32.979Z,523
2022-12-20T13:01:32.838Z,491
2022-12-20T13:02:32.890Z,491
2022-12-20T13:03:32.808Z,491
2022-12-20T13:05:32.958Z,491
2022-12-20T13:06:32.771Z,507
2022-12-20T13:07:32.805Z,507
2022-12-20T13:08:32.772Z,507
2022-12-20T13:10:32.951Z,507
2022-12-20T13:11:32.782Z,500
2022-12-20T13:12:32.784Z,500
2022-12-20T13:13:32.776Z,500
2022-12-20T13:15:32.989Z,500
2022-12-20T13:17:09.859Z,523
2022-12-20T13:17:32.790Z,523
2022-12-20T13:18:32.778Z,523
2022-12-20T13:20:33.018Z,523
2022-12-20T13:21:32.784Z,507
2022-12-20T13:22:32.828Z,507
2022-12-20T13:23:32.791Z,507
2022-12-20T13:25:32.986Z,507
2022-12-20T13:26:32.788Z,534
2022-12-20T13:27:32.809Z,534
2022-12-20T13:28:32.748Z,534
2022-12-20T13:30:33.041Z,534
2022-12-20T13:31:32.809Z,571
2022-12-20T13:32:32.778Z,571
2022-12-20T13:33:32.789Z,571
2022-12-20T13:35:32.964Z,571
2022-12-20T13:36:32.802Z,584
2022-12-20T13:37:32.764Z,584
2022-12-20T13:38:32.786Z,584
2022-12-20T13:40:32.966Z,584
2022-12-20T13:41:34.977Z,571
2022-12-20T13:42:32.792Z,571
2022-12-20T13:43:32.790Z,571
2022-12-20T13:45:33.044Z,571
2022-12-20T13:46:32.856Z,627
2022-12-20T13:47:32.791Z,627
2022-12-20T13:48:32.799Z,627
2022-12-20T13:50:32.985Z,627
2022-12-20T13:51:32.791Z,500
2022-12-20T13:52:32.793Z,500
2022-12-20T13:53:32.780Z,500
2022-12-20T13:55:32.997Z,500
2022-12-20T13:56:32.797Z,596
2022-12-20T13:57:32.797Z,596
2022-12-20T13:58:32.767Z,596
2022-12-20T14:00:32.966Z,596
2022-12-20T14:01:33.010Z,627
2022-12-20T14:02:32.972Z,627
2022-12-20T14:03:32.903Z,627
2022-12-20T14:05:32.980Z,627
2022-12-20T14:06:32.804Z,523
2022-12-20T14:07:32.815Z,523
2022-12-20T14:08:32.838Z,523
2022-12-20T14:10:32.984Z,523
2022-12-20T14:11:32.804Z,471
2022-12-20T14:12:36.676Z,471
2022-12-20T14:13:32.801Z,471
2022-12-20T14:15:33.006Z,471
2022-12-20T14:16:32.853Z,555
2022-12-20T14:17:32.838Z,555
2022-12-20T14:18:32.805Z,555
2022-12-20T14:20:32.977Z,555
2022-12-20T14:21:32.800Z,571
2022-12-20T14:22:32.796Z,571
2022-12-20T14:23:32.804Z,571
2022-12-20T14:25:32.990Z,571
2022-12-20T14:26:32.778Z,555
2022-12-20T14:27:32.798Z,555
2022-12-20T14:28:32.819Z,555
2022-12-20T14:30:33.019Z,555
2022-12-20T14:31:32.919Z,491
2022-12-20T14:32:32.820Z,491
2022-12-20T14:33:32.816Z,491
2022-12-20T14:35:32.991Z,491
2022-12-20T14:36:32.801Z,584
2022-12-20T14:37:32.808Z,584
2022-12-20T14:38:32.807Z,584
2022-12-20T14:40:32.982Z,584
2022-12-20T14:41:32.815Z,501
2022-12-20T14:42:32.843Z,501
2022-12-20T14:43:32.806Z,501
2022-12-20T14:45:33.013Z,501
2022-12-20T14:46:32.903Z,501
2022-12-20T14:47:32.811Z,501
2022-12-20T14:48:32.828Z,501
2022-12-20T14:50:32.988Z,501
2022-12-20T14:51:32.810Z,501
2022-12-20T14:52:32.811Z,501
2022-12-20T14:53:32.837Z,501
2022-12-20T14:55:33.008Z,501
2022-12-20T14:56:32.828Z,596
2022-12-20T14:57:32.816Z,596
2022-12-20T14:58:32.849Z,596
2022-12-20T15:00:33.018Z,596
2022-12-20T15:01:35.804Z,534
2022-12-20T15:02:32.937Z,534
2022-12-20T15:03:32.946Z,534
2022-12-20T15:05:32.998Z,534
2022-12-20T15:06:32.824Z,491
2022-12-20T15:07:32.833Z,491
2022-12-20T15:08:32.796Z,491
2022-12-20T15:10:33.000Z,491
2022-12-20T15:11:32.824Z,555
2022-12-20T15:12:36.269Z,555
2022-12-20T15:13:32.818Z,555
2022-12-20T15:15:33.030Z,555
2022-12-20T15:16:32.821Z,596
2022-12-20T15:17:32.827Z,596
2022-12-20T15:18:32.837Z,596
2022-12-20T15:20:33.028Z,596
2022-12-20T15:21:32.828Z,596
2022-12-20T15:22:32.832Z,596
2022-12-20T15:23:32.828Z,596
2022-12-20T15:25:36.681Z,596
2022-12-20T15:26:32.825Z,501
2022-12-20T15:27:32.811Z,501
2022-12-20T15:28:32.802Z,501
2022-12-20T15:30:33.001Z,501
2022-12-20T15:31:33.892Z,555
2022-12-20T15:32:32.799Z,555
2022-12-20T15:33:32.831Z,555
2022-12-20T15:35:33.004Z,555
2022-12-20T15:36:32.827Z,517
2022-12-20T15:37:32.836Z,517
2022-12-20T15:38:55.189Z,517
2022-12-20T15:40:33.042Z,517
2022-12-20T15:41:32.807Z,460
2022-12-20T15:42:32.802Z,460
2022-12-20T15:43:37.042Z,460
2022-12-20T15:45:33.018Z,460
2022-12-20T15:46:32.841Z,493
2022-12-20T15:47:32.836Z,493
2022-12-20T15:48:32.840Z,493
2022-12-20T15:50:33.039Z,493
2022-12-20T15:51:32.879Z,555
2022-12-20T15:52:32.824Z,555
2022-12-20T15:53:32.845Z,555
2022-12-20T15:55:37.804Z,555
2022-12-20T15:56:32.803Z,517
2022-12-20T15:57:32.812Z,517
2022-12-20T15:58:32.830Z,517
2022-12-20T16:00:33.007Z,517
2022-12-20T16:01:39.956Z,569
2022-12-20T16:02:33.245Z,569
2022-12-20T16:03:33.053Z,569
2022-12-20T16:05:33.034Z,569
2022-12-20T16:06:32.826Z,471
2022-12-20T16:07:32.846Z,471
2022-12-20T16:08:32.853Z,471
2022-12-20T16:10:33.040Z,471
2022-12-20T16:11:32.849Z,441
2022-12-20T16:12:32.827Z,441
2022-12-20T16:13:32.823Z,441
2022-12-20T16:15:33.045Z,441
2022-12-20T16:16:32.887Z,493
2022-12-20T16:17:32.860Z,493
2022-12-20T16:18:34.693Z,493
2022-12-20T16:20:33.023Z,493
2022-12-20T16:21:32.836Z,555
2022-12-20T16:22:32.813Z,555
2022-12-20T16:23:32.816Z,555
2022-12-20T16:25:33.067Z,555
2022-12-20T16:26:32.846Z,491
2022-12-20T16:27:32.861Z,491
2022-12-20T16:28:32.847Z,491
2022-12-20T16:30:33.051Z,491
2022-12-20T16:31:32.969Z,471
2022-12-20T16:32:32.860Z,471
2022-12-20T16:33:32.850Z,471
2022-12-20T16:35:33.047Z,471
2022-12-20T16:36:32.820Z,528
2022-12-20T16:37:37.244Z,528
2022-12-20T16:38:32.850Z,528
2022-12-20T16:40:33.035Z,528
2022-12-20T16:41:32.850Z,569
2022-12-20T16:42:32.854Z,569
2022-12-20T16:43:36.989Z,569
2022-12-20T16:45:33.058Z,569
2022-12-20T16:46:32.899Z,501
2022-12-20T16:47:32.870Z,501
2022-12-20T16:48:32.860Z,501
2022-12-20T16:50:33.058Z,501
2022-12-20T16:51:32.844Z,471
2022-12-20T16:52:32.860Z,471
2022-12-20T16:53:48.405Z,471
2022-12-20T16:55:39.405Z,471
2022-12-20T16:56:32.883Z,528
2022-12-20T16:57:32.864Z,528
2022-12-20T16:58:52.571Z,528
2022-12-20T17:00:33.045Z,528
2022-12-20T17:01:32.910Z,528
2022-12-20T17:02:33.053Z,528
2022-12-20T17:03:32.898Z,528
2022-12-20T17:05:33.078Z,528
2022-12-20T17:06:32.882Z,528
2022-12-20T17:07:36.616Z,528
2022-12-20T17:10:33.067Z,528
2022-12-20T17:11:32.874Z,621
2022-12-20T17:12:32.883Z,621
2022-12-20T17:13:32.826Z,621